Time;durP1;ratioP1;P1;durP2;ratioP2;P2;SDS_P1;SDS_P2;PMS_P1;PMS_P2;Temp;Humidity;BMP_temperature;BMP_pressure;BME280_temperature;BME280_humidity;BME280_pressure;Samples;Min_cycle;Max_cycle;Signal;HPM_P1;HPM_P2
2021/12/27 00:02:00;;;;;;;11.93;9.90;;;;;;;;;;5116441;28;20203;-65
2021/12/27 00:04:26;;;;;;;11.32;9.60;;;;;;;;;;5117347;28;20207;-66
2021/12/27 00:06:54;;;;;;;13.45;10.23;;;;;;;;;;5115166;28;20397;-66
2021/12/27 00:09:20;;;;;;;13.32;10.38;;;;;;;;;;5116749;28;20385;-66
2021/12/27 00:11:47;;;;;;;13.80;10.15;;;;;;;;;;5116425;28;20227;-66
2021/12/27 00:14:13;;;;;;;14.27;10.88;;;;;;;;;;5118940;28;20225;-66
2021/12/27 00:16:39;;;;;;;13.93;10.02;;;;;;;;;;5116755;28;20203;-66
2021/12/27 00:19:06;;;;;;;17.25;11.25;;;;;;;;;;5117460;28;20438;-66
2021/12/27 00:21:32;;;;;;;15.23;10.20;;;;;;;;;;5122111;28;20198;-66
2021/12/27 00:24:00;;;;;;;12.73;10.40;;;;;;;;;;5122957;28;20199;-66
2021/12/27 00:26:27;;;;;;;11.65;10.15;;;;;;;;;;5121817;28;20195;-66
2021/12/27 00:28:53;;;;;;;13.52;9.82;;;;;;;;;;5122542;28;20240;-66
2021/12/27 00:31:19;;;;;;;12.75;10.48;;;;;;;;;;5121667;28;20215;-65
2021/12/27 00:33:46;;;;;;;16.60;10.55;;;;;;;;;;5122770;28;20514;-66
2021/12/27 00:36:13;;;;;;;13.38;11.18;;;;;;;;;;5122556;28;20210;-66
2021/12/27 00:38:39;;;;;;;17.55;10.68;;;;;;;;;;5122243;28;20420;-65
2021/12/27 00:41:07;;;;;;;13.00;11.07;;;;;;;;;;5122348;28;20191;-66
2021/12/27 00:43:33;;;;;;;13.57;10.65;;;;;;;;;;5122191;28;20195;-66
2021/12/27 00:46:00;;;;;;;16.90;11.07;;;;;;;;;;5122427;28;20215;-66
2021/12/27 00:48:26;;;;;;;12.50;10.60;;;;;;;;;;5122006;28;20202;-66
2021/12/27 00:50:52;;;;;;;14.90;10.93;;;;;;;;;;5122300;28;20211;-66
2021/12/27 00:53:19;;;;;;;13.18;10.77;;;;;;;;;;5122590;28;20368;-66
2021/12/27 00:55:45;;;;;;;12.32;10.20;;;;;;;;;;5122088;28;20206;-66
2021/12/27 00:58:13;;;;;;;13.48;10.60;;;;;;;;;;5121922;28;20203;-66
2021/12/27 01:00:39;;;;;;;11.50;9.77;;;;;;;;;;5122408;28;20198;-66
2021/12/27 01:03:06;;;;;;;13.07;10.70;;;;;;;;;;5122436;28;20452;-66
2021/12/27 01:05:32;;;;;;;13.85;10.95;;;;;;;;;;5121952;28;20210;-66
2021/12/27 01:07:59;;;;;;;13.90;10.40;;;;;;;;;;5122259;28;20196;-66
2021/12/27 01:10:56;;;;;;;14.57;10.07;;;;;;;;;;5125398;28;20284;-66
2021/12/27 01:13:36;;;;;;;11.60;9.55;;;;;;;;;;5126105;28;20201;-66
2021/12/27 01:16:12;;;;;;;14.32;10.40;;;;;;;;;;5125685;28;20191;-66
2021/12/27 01:18:40;;;;;;;11.85;9.50;;;;;;;;;;5125797;28;20246;-66
2021/12/27 01:21:06;;;;;;;15.75;10.75;;;;;;;;;;5125593;28;20199;-66
2021/12/27 01:23:33;;;;;;;12.07;9.65;;;;;;;;;;5125875;28;20195;-66
2021/12/27 01:25:59;;;;;;;15.88;11.20;;;;;;;;;;5125327;28;20203;-66
2021/12/27 01:28:27;;;;;;;12.93;10.60;;;;;;;;;;5125567;28;20406;-66
2021/12/27 01:30:53;;;;;;;13.05;9.95;;;;;;;;;;5125747;28;20215;-66
2021/12/27 01:33:23;;;;;;;14.18;10.63;;;;;;;;;;5125716;28;20195;-66
2021/12/27 01:35:49;;;;;;;14.88;10.82;;;;;;;;;;5125164;27;20226;-66
2021/12/27 01:38:16;;;;;;;13.90;9.90;;;;;;;;;;5125427;28;20195;-66
2021/12/27 01:40:43;;;;;;;11.43;10.10;;;;;;;;;;5125322;28;20465;-66
2021/12/27 01:43:11;;;;;;;12.88;10.43;;;;;;;;;;5125231;28;20495;-66
2021/12/27 01:45:39;;;;;;;15.10;10.57;;;;;;;;;;5124844;28;20276;-67
2021/12/27 01:48:07;;;;;;;13.98;9.40;;;;;;;;;;5124599;28;20202;-66
2021/12/27 01:50:34;;;;;;;13.25;10.25;;;;;;;;;;5125315;28;20446;-66
2021/12/27 01:53:00;;;;;;;12.95;10.40;;;;;;;;;;5125252;27;20199;-66
2021/12/27 01:55:27;;;;;;;13.98;10.75;;;;;;;;;;5125111;28;20218;-66
2021/12/27 01:57:53;;;;;;;14.60;10.32;;;;;;;;;;5124894;28;20304;-66
2021/12/27 02:00:21;;;;;;;14.07;10.77;;;;;;;;;;5125020;28;20255;-66
2021/12/27 02:02:49;;;;;;;11.20;9.77;;;;;;;;;;5125155;28;20502;-66
2021/12/27 02:05:16;;;;;;;12.63;10.05;;;;;;;;;;5124703;28;20269;-66
2021/12/27 02:07:42;;;;;;;15.43;9.77;;;;;;;;;;5124651;28;20198;-66
2021/12/27 02:10:09;;;;;;;10.60;9.13;;;;;;;;;;5124925;28;20375;-66
2021/12/27 02:12:36;;;;;;;12.15;9.95;;;;;;;;;;5124521;28;20409;-66
2021/12/27 02:15:07;;;;;;;11.63;9.30;;;;;;;;;;5124197;28;20191;-66
2021/12/27 02:17:34;;;;;;;10.82;9.52;;;;;;;;;;5124596;28;20209;-66
2021/12/27 02:20:02;;;;;;;12.00;10.30;;;;;;;;;;5124524;28;20195;-66
2021/12/27 02:22:34;;;;;;;11.27;9.57;;;;;;;;;;5123519;28;20194;-66
2021/12/27 02:25:00;;;;;;;11.82;9.15;;;;;;;;;;5124229;28;20207;-66
2021/12/27 02:27:26;;;;;;;11.50;8.82;;;;;;;;;;5124357;28;20194;-66
2021/12/27 02:29:53;;;;;;;10.63;8.98;;;;;;;;;;5124615;28;20380;-66
2021/12/27 02:32:19;;;;;;;12.40;10.23;;;;;;;;;;5124160;28;20215;-66
2021/12/27 02:34:46;;;;;;;14.35;10.55;;;;;;;;;;5124077;28;20696;-66
2021/12/27 02:37:14;;;;;;;12.57;10.05;;;;;;;;;;5124026;28;20211;-66
2021/12/27 02:39:40;;;;;;;15.02;9.63;;;;;;;;;;5124362;28;20195;-66
2021/12/27 02:42:07;;;;;;;11.75;10.07;;;;;;;;;;5124266;28;20192;-66
2021/12/27 02:44:34;;;;;;;14.55;10.48;;;;;;;;;;5123897;28;20393;-66
2021/12/27 02:47:01;;;;;;;11.45;9.55;;;;;;;;;;5124228;28;20201;-66
2021/12/27 02:49:27;;;;;;;12.18;9.93;;;;;;;;;;5124273;28;20191;-66
2021/12/27 02:51:54;;;;;;;14.48;10.88;;;;;;;;;;5123962;28;20557;-66
2021/12/27 02:54:21;;;;;;;14.27;10.07;;;;;;;;;;5123840;28;20210;-66
2021/12/27 02:56:48;;;;;;;13.15;11.27;;;;;;;;;;5123737;28;20202;-66
2021/12/27 02:59:15;;;;;;;13.02;10.85;;;;;;;;;;5123746;28;20211;-66
2021/12/27 03:01:41;;;;;;;12.00;10.07;;;;;;;;;;5123658;28;20191;-66
2021/12/27 03:04:07;;;;;;;15.95;10.18;;;;;;;;;;5123411;28;20499;-66
2021/12/27 03:06:34;;;;;;;14.02;10.18;;;;;;;;;;5123297;28;20203;-66
2021/12/27 03:09:00;;;;;;;13.07;10.40;;;;;;;;;;5123988;28;20384;-66
2021/12/27 03:11:28;;;;;;;14.13;11.38;;;;;;;;;;5123477;28;20215;-66
2021/12/27 03:13:55;;;;;;;14.30;11.45;;;;;;;;;;5123322;28;20195;-66
2021/12/27 03:16:23;;;;;;;12.02;10.05;;;;;;;;;;5123440;28;20211;-66
2021/12/27 03:18:51;;;;;;;13.75;10.95;;;;;;;;;;5123337;28;20195;-66
2021/12/27 03:21:18;;;;;;;15.48;11.38;;;;;;;;;;5123250;28;20245;-66
2021/12/27 03:23:45;;;;;;;16.35;11.48;;;;;;;;;;5123267;28;20195;-66
2021/12/27 03:26:12;;;;;;;13.88;10.80;;;;;;;;;;5123242;28;20393;-66
2021/12/27 03:28:40;;;;;;;12.80;11.48;;;;;;;;;;5123301;28;20502;-66
2021/12/27 03:31:08;;;;;;;14.75;10.85;;;;;;;;;;5122973;28;20215;-66
2021/12/27 03:33:34;;;;;;;14.68;11.15;;;;;;;;;;5122734;28;20195;-66
2021/12/27 03:36:02;;;;;;;12.90;11.02;;;;;;;;;;5122319;28;20191;-66
2021/12/27 03:38:29;;;;;;;13.05;10.98;;;;;;;;;;5123257;28;20195;-66
2021/12/27 03:40:56;;;;;;;15.80;10.77;;;;;;;;;;5123348;27;20195;-66
2021/12/27 03:43:22;;;;;;;11.05;9.95;;;;;;;;;;5122922;28;20198;-66
2021/12/27 03:45:50;;;;;;;14.88;10.02;;;;;;;;;;5122680;28;20222;-66
2021/12/27 03:48:16;;;;;;;11.50;9.48;;;;;;;;;;5122949;28;20232;-66
2021/12/27 03:50:43;;;;;;;12.80;9.43;;;;;;;;;;5122623;28;20195;-66
2021/12/27 03:53:09;;;;;;;12.35;10.07;;;;;;;;;;5122970;28;20535;-66
2021/12/27 03:55:36;;;;;;;10.85;9.65;;;;;;;;;;5122613;28;20202;-66
2021/12/27 03:58:12;;;;;;;12.50;10.00;;;;;;;;;;5122665;28;20210;-66
2021/12/27 04:00:59;;;;;;;13.20;10.20;;;;;;;;;;5122824;28;20435;-66
2021/12/27 04:03:27;;;;;;;11.55;9.68;;;;;;;;;;5122956;28;20183;-66
2021/12/27 04:05:54;;;;;;;11.43;9.63;;;;;;;;;;5122200;28;20195;-66
2021/12/27 04:08:22;;;;;;;11.23;10.07;;;;;;;;;;5122737;28;20202;-66
2021/12/27 04:10:49;;;;;;;15.27;11.85;;;;;;;;;;5122950;28;20194;-66
2021/12/27 04:13:18;;;;;;;23.58;17.67;;;;;;;;;;5122839;28;20225;-66
2021/12/27 04:15:45;;;;;;;16.33;13.93;;;;;;;;;;5122494;28;20258;-66
2021/12/27 04:18:12;;;;;;;14.48;11.50;;;;;;;;;;5122771;28;20202;-66
2021/12/27 04:20:40;;;;;;;14.98;12.15;;;;;;;;;;5122627;28;20202;-66
2021/12/27 04:23:07;;;;;;;11.88;10.00;;;;;;;;;;5122600;28;20514;-66
2021/12/27 04:25:33;;;;;;;14.30;9.95;;;;;;;;;;5122221;28;20202;-66
2021/12/27 04:28:00;;;;;;;13.73;10.88;;;;;;;;;;5122757;28;20366;-66
2021/12/27 04:30:26;;;;;;;14.38;10.10;;;;;;;;;;5122641;28;20202;-66
2021/12/27 04:32:52;;;;;;;11.43;9.68;;;;;;;;;;5122477;28;20215;-66
2021/12/27 04:35:19;;;;;;;12.65;10.63;;;;;;;;;;5122211;28;20202;-66
2021/12/27 04:37:48;;;;;;;10.35;9.35;;;;;;;;;;5122452;28;20195;-66
2021/12/27 04:40:15;;;;;;;10.55;9.45;;;;;;;;;;5122362;28;20202;-66
2021/12/27 04:42:43;;;;;;;15.05;10.10;;;;;;;;;;5122709;28;20492;-66
2021/12/27 04:45:11;;;;;;;10.82;9.82;;;;;;;;;;5124977;28;20215;-66
2021/12/27 04:47:38;;;;;;;11.10;8.85;;;;;;;;;;5126351;28;20228;-66
2021/12/27 04:50:05;;;;;;;9.98;8.88;;;;;;;;;;5126452;28;20228;-66
2021/12/27 04:52:32;;;;;;;12.45;9.40;;;;;;;;;;5126080;28;20211;-66
2021/12/27 04:54:59;;;;;;;13.23;9.82;;;;;;;;;;5126307;28;20196;-66
2021/12/27 04:57:26;;;;;;;11.10;9.23;;;;;;;;;;5126109;28;20202;-66
2021/12/27 04:59:52;;;;;;;10.90;8.48;;;;;;;;;;5126032;28;20210;-66
2021/12/27 05:02:19;;;;;;;13.18;9.43;;;;;;;;;;5125897;28;20187;-66
2021/12/27 05:04:45;;;;;;;9.73;8.73;;;;;;;;;;5125608;28;20202;-66
2021/12/27 05:07:12;;;;;;;8.70;7.88;;;;;;;;;;5125999;28;20192;-66
2021/12/27 05:09:38;;;;;;;11.68;8.20;;;;;;;;;;5126522;28;20195;-66
2021/12/27 05:12:06;;;;;;;9.27;8.35;;;;;;;;;;5126064;28;20382;-66
2021/12/27 05:14:33;;;;;;;9.30;8.27;;;;;;;;;;5125716;28;20195;-66
2021/12/27 05:16:59;;;;;;;9.70;8.68;;;;;;;;;;5125827;28;20195;-66
2021/12/27 05:19:26;;;;;;;9.77;8.77;;;;;;;;;;5125977;28;20180;-66
2021/12/27 05:21:52;;;;;;;9.70;8.80;;;;;;;;;;5125507;28;20187;-66
2021/12/27 05:24:21;;;;;;;10.27;9.07;;;;;;;;;;5125981;28;20195;-66
2021/12/27 05:26:49;;;;;;;9.88;8.88;;;;;;;;;;5125321;28;20195;-66
2021/12/27 05:29:17;;;;;;;11.80;9.23;;;;;;;;;;5125792;28;20207;-66
2021/12/27 05:31:43;;;;;;;11.73;9.38;;;;;;;;;;5125766;28;20230;-66
2021/12/27 05:34:10;;;;;;;10.07;9.07;;;;;;;;;;5125646;28;20507;-66
2021/12/27 05:36:37;;;;;;;11.23;8.80;;;;;;;;;;5124629;28;20226;-66
2021/12/27 05:39:03;;;;;;;11.07;8.85;;;;;;;;;;5125719;28;20202;-66
2021/12/27 05:41:30;;;;;;;10.00;9.00;;;;;;;;;;5125714;28;20479;-66
2021/12/27 05:43:56;;;;;;;14.15;9.50;;;;;;;;;;5125249;28;20199;-66
2021/12/27 05:46:24;;;;;;;10.43;9.32;;;;;;;;;;5124913;28;20215;-66
2021/12/27 05:48:50;;;;;;;11.68;9.90;;;;;;;;;;5125073;28;20195;-66
2021/12/27 05:51:17;;;;;;;10.82;9.73;;;;;;;;;;5125182;28;20428;-66
2021/12/27 05:53:43;;;;;;;11.20;9.23;;;;;;;;;;5125014;28;20219;-66
2021/12/27 05:56:10;;;;;;;10.20;8.75;;;;;;;;;;5124738;28;20250;-66
2021/12/27 05:58:36;;;;;;;11.18;9.85;;;;;;;;;;5125090;28;20636;-66
2021/12/27 06:01:03;;;;;;;11.13;8.70;;;;;;;;;;5124766;28;20202;-66
2021/12/27 06:03:30;;;;;;;10.27;9.00;;;;;;;;;;5125022;28;20191;-66
2021/12/27 06:05:57;;;;;;;9.68;8.75;;;;;;;;;;5124387;27;20203;-66
2021/12/27 06:08:23;;;;;;;11.48;8.57;;;;;;;;;;5125091;28;20195;-66
2021/12/27 06:10:50;;;;;;;11.80;8.95;;;;;;;;;;5124815;28;20195;-66
2021/12/27 06:13:16;;;;;;;12.05;9.07;;;;;;;;;;5124548;28;20226;-66
2021/12/27 06:15:43;;;;;;;9.93;8.85;;;;;;;;;;5124515;28;20199;-66
2021/12/27 06:18:09;;;;;;;12.68;9.85;;;;;;;;;;5124976;28;20266;-66
2021/12/27 06:20:37;;;;;;;10.00;8.32;;;;;;;;;;5124674;28;20198;-66
2021/12/27 06:23:03;;;;;;;9.85;8.85;;;;;;;;;;5124576;28;20191;-66
2021/12/27 06:25:30;;;;;;;11.13;9.00;;;;;;;;;;5124528;28;20195;-66
2021/12/27 06:27:58;;;;;;;12.90;8.85;;;;;;;;;;5124415;27;20358;-66
2021/12/27 06:30:24;;;;;;;10.32;8.75;;;;;;;;;;5124276;28;20195;-66
2021/12/27 06:32:51;;;;;;;9.68;8.48;;;;;;;;;;5124398;28;20219;-66
2021/12/27 06:35:18;;;;;;;10.93;8.52;;;;;;;;;;5123722;28;20195;-66
2021/12/27 06:37:47;;;;;;;11.77;8.93;;;;;;;;;;5124315;28;20195;-66
2021/12/27 06:40:14;;;;;;;9.00;8.05;;;;;;;;;;5124282;28;20389;-66
2021/12/27 06:42:41;;;;;;;8.82;8.02;;;;;;;;;;5124080;28;20191;-66
2021/12/27 06:45:07;;;;;;;12.02;8.95;;;;;;;;;;5123925;28;20215;-66
2021/12/27 06:47:34;;;;;;;10.35;8.32;;;;;;;;;;5123772;28;20222;-66
2021/12/27 06:50:00;;;;;;;9.65;8.40;;;;;;;;;;5123872;28;20195;-66
2021/12/27 06:52:27;;;;;;;8.80;7.90;;;;;;;;;;5123907;27;20222;-66
2021/12/27 06:54:54;;;;;;;10.07;9.07;;;;;;;;;;5123780;28;20353;-65
2021/12/27 06:57:21;;;;;;;11.98;10.57;;;;;;;;;;5122177;28;20755;-55
2021/12/27 06:59:48;;;;;;;13.20;9.27;;;;;;;;;;5123582;28;20206;-56
2021/12/27 07:02:14;;;;;;;9.77;8.88;;;;;;;;;;5113985;28;20187;-55
2021/12/27 07:04:41;;;;;;;12.50;8.55;;;;;;;;;;5106119;28;20199;-55
2021/12/27 07:07:08;;;;;;;10.85;7.93;;;;;;;;;;5102684;28;20385;-56
2021/12/27 07:09:34;;;;;;;9.63;8.38;;;;;;;;;;5103244;28;20203;-55
2021/12/27 07:12:02;;;;;;;9.27;7.85;;;;;;;;;;5117765;28;20339;-55
2021/12/27 07:14:28;;;;;;;9.02;8.13;;;;;;;;;;5123306;28;20198;-54
2021/12/27 07:16:55;;;;;;;8.88;7.60;;;;;;;;;;5123617;28;20202;-55
2021/12/27 07:19:21;;;;;;;8.48;6.63;;;;;;;;;;5123746;28;20359;-56
2021/12/27 07:21:48;;;;;;;11.07;8.43;;;;;;;;;;5123178;28;20277;-54
2021/12/27 07:24:14;;;;;;;11.55;7.80;;;;;;;;;;5123552;28;20198;-54
2021/12/27 07:26:40;;;;;;;6.50;6.00;;;;;;;;;;5123069;28;20195;-53
2021/12/27 07:29:08;;;;;;;6.22;5.57;;;;;;;;;;5123471;28;20194;-53
2021/12/27 07:31:35;;;;;;;6.43;5.93;;;;;;;;;;5122781;28;20194;-55
2021/12/27 07:34:01;;;;;;;5.43;5.03;;;;;;;;;;5122082;28;20206;-54
2021/12/27 07:36:28;;;;;;;6.22;5.72;;;;;;;;;;5121255;28;20252;-55
2021/12/27 07:38:55;;;;;;;6.45;5.43;;;;;;;;;;5122075;28;20210;-54
2021/12/27 07:41:21;;;;;;;5.53;5.03;;;;;;;;;;5122234;28;20201;-56
2021/12/27 07:43:48;;;;;;;5.50;5.00;;;;;;;;;;5122254;28;20198;-54
2021/12/27 07:46:15;;;;;;;7.97;4.75;;;;;;;;;;5121462;28;20391;-53
2021/12/27 07:48:42;;;;;;;5.78;5.28;;;;;;;;;;5122176;28;20195;-54
2021/12/27 07:51:08;;;;;;;6.57;5.55;;;;;;;;;;5122230;28;20195;-55
2021/12/27 07:53:35;;;;;;;6.35;5.85;;;;;;;;;;5122254;28;20228;-53
2021/12/27 07:56:01;;;;;;;5.30;4.90;;;;;;;;;;5122023;28;20401;-55
2021/12/27 07:58:27;;;;;;;5.70;5.20;;;;;;;;;;5121913;28;20203;-55
2021/12/27 08:00:54;;;;;;;5.30;4.93;;;;;;;;;;5122250;28;20202;-55
2021/12/27 08:03:22;;;;;;;5.00;4.70;;;;;;;;;;5122355;28;20197;-55
2021/12/27 08:05:48;;;;;;;6.70;6.20;;;;;;;;;;5121914;28;20195;-54
2021/12/27 08:08:15;;;;;;;6.70;6.00;;;;;;;;;;5122299;28;20195;-54
2021/12/27 08:10:42;;;;;;;7.38;6.68;;;;;;;;;;5121879;28;20248;-53
2021/12/27 08:13:08;;;;;;;9.35;6.38;;;;;;;;;;5121940;28;20219;-53
2021/12/27 08:15:35;;;;;;;7.75;7.10;;;;;;;;;;5121530;28;20492;-54
2021/12/27 08:18:01;;;;;;;8.10;7.30;;;;;;;;;;5122911;28;20194;-53
2021/12/27 08:20:29;;;;;;;8.32;7.35;;;;;;;;;;5126312;27;20195;-55
2021/12/27 08:22:55;;;;;;;9.10;8.18;;;;;;;;;;5126363;28;20220;-54
2021/12/27 08:25:22;;;;;;;13.70;9.00;;;;;;;;;;5125924;28;20229;-54
2021/12/27 08:27:49;;;;;;;10.50;9.40;;;;;;;;;;5126236;28;20203;-54
2021/12/27 08:30:15;;;;;;;14.43;10.20;;;;;;;;;;5125842;28;20195;-53
2021/12/27 08:32:42;;;;;;;12.80;10.90;;;;;;;;;;5125795;28;20214;-53
2021/12/27 08:35:09;;;;;;;12.05;10.85;;;;;;;;;;5125959;28;20219;-54
2021/12/27 08:37:38;;;;;;;11.75;10.48;;;;;;;;;;5125433;28;20195;-54
2021/12/27 08:40:05;;;;;;;12.07;9.98;;;;;;;;;;5126117;28;20455;-55
2021/12/27 08:42:32;;;;;;;11.80;9.43;;;;;;;;;;5126071;28;20214;-54
2021/12/27 08:44:58;;;;;;;10.55;9.45;;;;;;;;;;5125566;28;20207;-54
2021/12/27 08:47:25;;;;;;;12.25;10.23;;;;;;;;;;5125937;28;20195;-54
2021/12/27 08:49:52;;;;;;;11.15;9.30;;;;;;;;;;5126178;28;20195;-54
2021/12/27 08:52:18;;;;;;;10.40;9.40;;;;;;;;;;5124570;28;20187;-55
2021/12/27 08:54:46;;;;;;;12.95;10.48;;;;;;;;;;5124917;28;20219;-54
2021/12/27 08:57:12;;;;;;;13.23;10.50;;;;;;;;;;5124555;28;20195;-54
2021/12/27 08:59:39;;;;;;;12.70;10.50;;;;;;;;;;5124847;28;20202;-54
2021/12/27 09:02:06;;;;;;;12.98;11.57;;;;;;;;;;5124824;28;20428;-55
2021/12/27 09:04:33;;;;;;;12.73;11.30;;;;;;;;;;5124530;28;20199;-54
2021/12/27 09:06:59;;;;;;;11.95;10.85;;;;;;;;;;5124147;27;20210;-56
2021/12/27 09:09:26;;;;;;;11.45;9.77;;;;;;;;;;5124676;28;20360;-55
2021/12/27 09:11:54;;;;;;;11.10;9.73;;;;;;;;;;5124384;28;20206;-53
2021/12/27 09:14:20;;;;;;;11.32;9.65;;;;;;;;;;5124629;28;20214;-54
2021/12/27 09:16:47;;;;;;;11.68;9.52;;;;;;;;;;5124037;28;20194;-54
2021/12/27 09:19:14;;;;;;;10.98;9.75;;;;;;;;;;5124370;28;20195;-55
2021/12/27 09:21:41;;;;;;;10.82;9.38;;;;;;;;;;5124710;28;20401;-54
2021/12/27 09:24:07;;;;;;;12.52;9.48;;;;;;;;;;5124338;28;20191;-54
2021/12/27 09:26:35;;;;;;;10.13;9.02;;;;;;;;;;5113674;28;20207;-55
2021/12/27 09:29:03;;;;;;;11.52;8.95;;;;;;;;;;5114478;28;20413;-54
2021/12/27 09:31:29;;;;;;;8.68;7.88;;;;;;;;;;5117257;28;20219;-54
2021/12/27 09:33:56;;;;;;;8.25;7.45;;;;;;;;;;5118052;28;20234;-55
2021/12/27 09:36:22;;;;;;;8.00;7.22;;;;;;;;;;5117456;28;20211;-53
2021/12/27 09:38:49;;;;;;;10.75;7.05;;;;;;;;;;5117728;28;20214;-54
2021/12/27 09:41:15;;;;;;;8.65;7.85;;;;;;;;;;5110562;28;20229;-54
2021/12/27 09:43:42;;;;;;;7.57;6.90;;;;;;;;;;5111382;28;20210;-56
2021/12/27 09:46:10;;;;;;;7.35;6.72;;;;;;;;;;5117671;28;20488;-53
2021/12/27 09:48:36;;;;;;;8.35;7.70;;;;;;;;;;5121538;28;20594;-53
2021/12/27 09:51:04;;;;;;;7.82;7.07;;;;;;;;;;5121114;28;20210;-54
2021/12/27 09:53:30;;;;;;;8.45;7.75;;;;;;;;;;5121006;28;20234;-53
2021/12/27 09:55:56;;;;;;;9.05;8.15;;;;;;;;;;5120759;28;20503;-54
2021/12/27 09:58:23;;;;;;;9.63;8.73;;;;;;;;;;5120931;28;20219;-53
2021/12/27 10:00:50;;;;;;;10.27;9.27;;;;;;;;;;5120686;28;20192;-54
2021/12/27 10:03:17;;;;;;;12.85;9.68;;;;;;;;;;5120901;28;20206;-55
2021/12/27 10:05:44;;;;;;;11.13;9.23;;;;;;;;;;5120345;28;20375;-54
2021/12/27 10:08:10;;;;;;;8.95;8.15;;;;;;;;;;5120780;28;20511;-55
2021/12/27 10:10:37;;;;;;;10.73;8.88;;;;;;;;;;5120316;28;20215;-54
2021/12/27 10:13:07;;;;;;;10.75;9.60;;;;;;;;;;5120332;28;20203;-54
2021/12/27 10:15:34;;;;;;;10.27;8.82;;;;;;;;;;5119958;28;20506;-54
2021/12/27 10:18:07;;;;;;;10.10;9.13;;;;;;;;;;5120110;28;20203;-56
2021/12/27 10:20:35;;;;;;;10.25;8.52;;;;;;;;;;5120843;28;20211;-53
2021/12/27 10:23:01;;;;;;;10.65;7.80;;;;;;;;;;5120182;28;20210;-54
2021/12/27 10:25:28;;;;;;;8.00;7.30;;;;;;;;;;5120526;28;20214;-54
2021/12/27 10:27:56;;;;;;;8.18;6.82;;;;;;;;;;5123202;28;20198;-53
2021/12/27 10:30:23;;;;;;;9.07;7.55;;;;;;;;;;5123061;27;20202;-54
2021/12/27 10:33:02;;;;;;;7.20;6.60;;;;;;;;;;5123077;28;20199;-54
2021/12/27 10:35:35;;;;;;;7.13;6.53;;;;;;;;;;5121993;28;20183;-54
2021/12/27 10:38:11;;;;;;;7.15;6.53;;;;;;;;;;5122587;28;20183;-53
2021/12/27 10:40:38;;;;;;;7.03;6.40;;;;;;;;;;5122646;28;20195;-54
2021/12/27 10:43:04;;;;;;;6.47;5.95;;;;;;;;;;5121853;28;20194;-53
2021/12/27 10:45:31;;;;;;;6.68;6.15;;;;;;;;;;5122137;28;20215;-55
2021/12/27 10:47:57;;;;;;;7.90;6.82;;;;;;;;;;5122916;28;20195;-56
2021/12/27 10:50:25;;;;;;;6.93;6.40;;;;;;;;;;5122697;28;20187;-53
2021/12/27 10:53:00;;;;;;;7.05;6.40;;;;;;;;;;5122729;28;20265;-52
2021/12/27 10:55:30;;;;;;;6.60;6.00;;;;;;;;;;5122405;28;20194;-52
2021/12/27 10:58:09;;;;;;;6.90;6.25;;;;;;;;;;5122745;28;20355;-52
2021/12/27 11:00:36;;;;;;;6.78;6.18;;;;;;;;;;5122803;28;20515;-52
2021/12/27 11:03:03;;;;;;;6.57;5.97;;;;;;;;;;5122547;28;20191;-52
2021/12/27 11:05:30;;;;;;;10.73;6.55;;;;;;;;;;5122184;28;20218;-53
2021/12/27 11:07:59;;;;;;;7.07;6.45;;;;;;;;;;5122512;28;20503;-53
2021/12/27 11:10:27;;;;;;;6.75;6.07;;;;;;;;;;5122476;28;20195;-53
2021/12/27 11:12:54;;;;;;;10.57;9.48;;;;;;;;;;5122374;28;20202;-53
2021/12/27 11:15:20;;;;;;;8.85;7.95;;;;;;;;;;5121879;28;20357;-53
2021/12/27 11:17:47;;;;;;;7.68;6.85;;;;;;;;;;5122233;28;20195;-53
2021/12/27 11:20:14;;;;;;;7.20;6.50;;;;;;;;;;5122392;28;20195;-54
2021/12/27 11:22:42;;;;;;;7.75;6.95;;;;;;;;;;5122326;28;20386;-53
2021/12/27 11:25:09;;;;;;;7.32;6.57;;;;;;;;;;5121821;28;20195;-54
2021/12/27 11:27:37;;;;;;;6.00;5.47;;;;;;;;;;5122137;28;20390;-53
2021/12/27 11:30:07;;;;;;;6.65;6.05;;;;;;;;;;5121805;28;20202;-53
2021/12/27 11:32:34;;;;;;;6.20;5.60;;;;;;;;;;5121796;28;20232;-53
2021/12/27 11:35:02;;;;;;;6.30;5.70;;;;;;;;;;5121390;28;20210;-53
2021/12/27 11:37:35;;;;;;;6.47;5.88;;;;;;;;;;5121666;28;20504;-54
2021/12/27 11:40:04;;;;;;;6.47;5.97;;;;;;;;;;5122105;28;20195;-53
2021/12/27 11:42:30;;;;;;;6.25;5.75;;;;;;;;;;5121910;28;20205;-53
2021/12/27 11:44:58;;;;;;;6.80;6.20;;;;;;;;;;5121820;27;20211;-54
2021/12/27 11:47:26;;;;;;;5.97;5.57;;;;;;;;;;5121710;28;20203;-54
2021/12/27 11:49:59;;;;;;;6.43;5.82;;;;;;;;;;5121904;28;20195;-52
2021/12/27 11:52:27;;;;;;;5.78;5.35;;;;;;;;;;5121571;28;20233;-53
2021/12/27 11:54:55;;;;;;;6.25;5.65;;;;;;;;;;5121583;28;20282;-52
2021/12/27 11:57:39;;;;;;;6.30;5.75;;;;;;;;;;5121400;28;20202;-53
2021/12/27 12:00:20;;;;;;;6.53;6.00;;;;;;;;;;5121797;28;20455;-52
2021/12/27 12:02:49;;;;;;;5.18;4.88;;;;;;;;;;5121326;28;20247;-53
2021/12/27 12:05:30;;;;;;;5.15;4.75;;;;;;;;;;5121145;28;20381;-52
2021/12/27 12:07:57;;;;;;;5.68;4.65;;;;;;;;;;5121016;28;20201;-52
2021/12/27 12:10:23;;;;;;;5.38;4.97;;;;;;;;;;5121718;28;20203;-53
2021/12/27 12:13:08;;;;;;;5.18;4.85;;;;;;;;;;5121631;28;20569;-54
2021/12/27 12:15:35;;;;;;;5.72;5.22;;;;;;;;;;5121081;28;20219;-54
2021/12/27 12:18:15;;;;;;;5.30;4.88;;;;;;;;;;5121053;28;20191;-53
2021/12/27 12:20:42;;;;;;;4.80;4.40;;;;;;;;;;5121455;28;20432;-54
2021/12/27 12:23:09;;;;;;;4.65;4.20;;;;;;;;;;5120946;28;20202;-53
2021/12/27 12:25:37;;;;;;;5.07;4.68;;;;;;;;;;5121225;28;20191;-55
2021/12/27 12:28:05;;;;;;;4.53;4.22;;;;;;;;;;5121259;28;20203;-54
2021/12/27 12:30:33;;;;;;;7.93;6.25;;;;;;;;;;5121306;28;20374;-54
2021/12/27 12:33:01;;;;;;;7.30;5.80;;;;;;;;;;5121511;28;20474;-54
2021/12/27 12:35:32;;;;;;;6.43;5.88;;;;;;;;;;5121074;28;20246;-53
2021/12/27 12:38:08;;;;;;;8.68;5.95;;;;;;;;;;5120976;28;20312;-53
2021/12/27 12:40:35;;;;;;;7.05;5.97;;;;;;;;;;5121002;28;20201;-54
2021/12/27 12:43:01;;;;;;;6.03;5.53;;;;;;;;;;5121382;28;20195;-52
2021/12/27 12:45:29;;;;;;;6.78;5.97;;;;;;;;;;5120866;28;20439;-54
2021/12/27 12:47:56;;;;;;;6.10;5.57;;;;;;;;;;5121128;28;20195;-52
2021/12/27 12:50:23;;;;;;;5.70;5.25;;;;;;;;;;5121346;28;20191;-52
2021/12/27 12:52:51;;;;;;;7.72;5.97;;;;;;;;;;5121095;28;20195;-52
2021/12/27 12:55:20;;;;;;;7.28;6.57;;;;;;;;;;5120939;28;20215;-54
2021/12/27 12:57:47;;;;;;;8.25;7.43;;;;;;;;;;5120781;28;20196;-53
2021/12/27 13:00:14;;;;;;;6.90;5.50;;;;;;;;;;5121554;28;20302;-54
2021/12/27 13:02:41;;;;;;;5.30;4.90;;;;;;;;;;5120963;28;20195;-53
2021/12/27 13:05:09;;;;;;;5.13;4.70;;;;;;;;;;5121883;28;20213;-55
2021/12/27 13:07:37;;;;;;;7.03;6.40;;;;;;;;;;5124642;28;20195;-53
2021/12/27 13:10:06;;;;;;;8.05;6.75;;;;;;;;;;5124823;28;20262;-54
2021/12/27 13:12:32;;;;;;;5.70;5.10;;;;;;;;;;5124636;28;20202;-55
2021/12/27 13:15:08;;;;;;;5.53;5.03;;;;;;;;;;5124526;28;20227;-54
2021/12/27 13:17:37;;;;;;;5.30;4.80;;;;;;;;;;5123963;28;20186;-54
2021/12/27 13:20:11;;;;;;;5.97;5.43;;;;;;;;;;5124402;28;20491;-53
2021/12/27 13:22:42;;;;;;;5.28;4.90;;;;;;;;;;5124568;28;20193;-53
2021/12/27 13:25:10;;;;;;;5.00;4.70;;;;;;;;;;5123942;28;20191;-54
2021/12/27 13:27:37;;;;;;;5.47;5.05;;;;;;;;;;5124379;28;20195;-53
2021/12/27 13:30:07;;;;;;;4.32;4.03;;;;;;;;;;5124234;28;20270;-52
2021/12/27 13:32:34;;;;;;;3.90;3.60;;;;;;;;;;5124347;28;20196;-52
2021/12/27 13:35:00;;;;;;;4.13;3.90;;;;;;;;;;5123978;28;20238;-53
2021/12/27 13:37:26;;;;;;;4.22;3.92;;;;;;;;;;5124107;28;20198;-54
2021/12/27 13:40:03;;;;;;;4.78;4.45;;;;;;;;;;5124440;28;20349;-54
2021/12/27 13:42:31;;;;;;;5.15;4.75;;;;;;;;;;5124022;27;20270;-54
2021/12/27 13:45:07;;;;;;;5.20;4.80;;;;;;;;;;5103438;28;20207;-54
2021/12/27 13:47:33;;;;;;;4.70;4.35;;;;;;;;;;5120356;28;20191;-54
2021/12/27 13:49:59;;;;;;;7.20;4.53;;;;;;;;;;5123944;28;20195;-53
2021/12/27 13:52:26;;;;;;;5.18;4.65;;;;;;;;;;5123829;28;20195;-54
2021/12/27 13:54:54;;;;;;;4.25;3.85;;;;;;;;;;5123502;28;20223;-54
2021/12/27 13:57:21;;;;;;;4.68;4.38;;;;;;;;;;5123511;28;20191;-53
2021/12/27 13:59:49;;;;;;;3.92;3.72;;;;;;;;;;5123764;28;20203;-52
2021/12/27 14:02:16;;;;;;;5.38;4.28;;;;;;;;;;5123751;27;20315;-54
2021/12/27 14:04:42;;;;;;;5.15;4.32;;;;;;;;;;5123647;28;20192;-54
2021/12/27 14:07:10;;;;;;;5.38;4.18;;;;;;;;;;5123503;28;20225;-53
2021/12/27 14:09:37;;;;;;;5.38;3.95;;;;;;;;;;5123818;28;20393;-54
2021/12/27 14:12:05;;;;;;;3.75;3.55;;;;;;;;;;5123266;28;20219;-54
2021/12/27 14:14:36;;;;;;;4.00;3.72;;;;;;;;;;5123196;28;20215;-53
2021/12/27 14:17:04;;;;;;;3.75;3.45;;;;;;;;;;5122888;28;20309;-53
2021/12/27 14:19:31;;;;;;;4.85;4.45;;;;;;;;;;5123031;28;20195;-53
2021/12/27 14:22:05;;;;;;;4.70;4.32;;;;;;;;;;5123397;28;20385;-53
2021/12/27 14:24:41;;;;;;;4.75;4.45;;;;;;;;;;5123187;28;20432;-53
2021/12/27 14:27:14;;;;;;;5.85;4.55;;;;;;;;;;5122826;28;20221;-53
2021/12/27 14:29:41;;;;;;;4.72;4.32;;;;;;;;;;5123069;28;20190;-53
2021/12/27 14:32:09;;;;;;;7.18;5.10;;;;;;;;;;5123783;28;20203;-54
2021/12/27 14:34:39;;;;;;;6.40;5.07;;;;;;;;;;5122814;28;20219;-54
2021/12/27 14:37:06;;;;;;;5.10;4.70;;;;;;;;;;5123112;28;20207;-53